Terminal Aerodrome Forecast
Issued by NWS

Home | Current Version | Previous Version | Text Only | Print | Product List | Glossary On
Versions: 1 2 3 4 5 6 7 8 9 10 11 12 13 14 15 16
448
FTUS44 KCRP 191742
TAFALI
TAF
KALI 191742Z 1918/2018 04014G20KT P6SM FEW250
     FM192200 05008KT P6SM SCT250
     FM200600 01004KT P6SM SCT250=

USA.gov is the U.S. government's official web portal to all federal, state and local government web resources and services.